Terminal Aerodrome Forecast
Issued by NWS Atlanta, GA

Home | Current Version | Previous Version | Text Only | Print | Product List | Glossary On
Versions: 1 2 3 4 5 6 7 8 9 10 11 12 13 14 15 16 17 18 19 20 21 22 23 24 25 26 27 28
166
FTUS42 KFFC 220520
TAFAHN
TAF
KAHN 220520Z 2206/2306 18003KT P6SM FEW250
     FM221200 00000KT P6SM SCT020
     FM221400 14006KT P6SM BKN012
     FM221800 16008KT P6SM VCSH OVC004
     FM222200 17008KT 5SM -SHRA OVC007 PROB30 2302/2306 21012G22KT
      4SM TSRA OVC008CB=

USA.gov is the U.S. government's official web portal to all federal, state and local government web resources and services.